Time;durP1;ratioP1;P1;durP2;ratioP2;P2;SDS_P1;SDS_P2;PMS_P1;PMS_P2;Temp;Humidity;BMP_temperature;BMP_pressure;BME280_temperature;BME280_humidity;BME280_pressure;Samples;Min_cycle;Max_cycle;Signal;HPM_P1;HPM_P2
2020/12/13 00:01:20;;;;;;;65.80;32.38;;;;;;;3.99;100.00;100322.16;6175181;28;20085;-67
2020/12/13 00:04:21;;;;;;;66.07;32.35;;;;;;;4.03;100.00;100326.34;6175373;28;20192;-67
2020/12/13 00:07:22;;;;;;;73.93;32.55;;;;;;;4.01;100.00;100322.97;6175451;28;20055;-66
2020/12/13 00:10:24;;;;;;;60.80;30.63;;;;;;;3.99;100.00;100327.34;6174854;28;20058;-67
2020/12/13 00:13:25;;;;;;;68.47;31.90;;;;;;;4.07;100.00;100327.94;6175548;28;20065;-67
2020/12/13 00:16:26;;;;;;;65.13;32.13;;;;;;;4.08;100.00;100320.09;6174883;28;20054;-67
2020/12/13 00:19:27;;;;;;;66.70;31.65;;;;;;;4.00;100.00;100322.13;6175065;28;20054;-67
2020/12/13 00:22:27;;;;;;;67.60;33.80;;;;;;;4.02;100.00;100330.72;6174445;28;20158;-67
2020/12/13 00:25:29;;;;;;;69.38;33.45;;;;;;;4.01;100.00;100333.38;6175278;28;20055;-67
2020/12/13 00:28:30;;;;;;;69.47;33.60;;;;;;;4.01;100.00;100333.38;6174342;28;20053;-67
2020/12/13 00:31:31;;;;;;;67.10;33.97;;;;;;;4.06;100.00;100339.25;6173955;28;20416;-67
2020/12/13 00:34:33;;;;;;;68.38;33.17;;;;;;;4.10;100.00;100337.41;6174786;28;20055;-67
2020/12/13 00:37:34;;;;;;;68.90;32.38;;;;;;;4.01;100.00;100341.16;6174471;28;20050;-67
2020/12/13 00:40:35;;;;;;;72.18;34.38;;;;;;;4.04;100.00;100343.66;6174454;28;20538;-67
2020/12/13 00:43:36;;;;;;;68.75;34.60;;;;;;;3.96;100.00;100341.31;6174620;28;20058;-67
2020/12/13 00:46:39;;;;;;;71.50;31.85;;;;;;;3.99;100.00;100348.16;6174416;28;20523;-67
2020/12/13 00:49:40;;;;;;;60.88;30.73;;;;;;;4.10;100.00;100351.25;6173833;28;20053;-67
2020/12/13 00:52:41;;;;;;;68.07;31.83;;;;;;;4.06;100.00;100353.09;6174488;28;20050;-67
2020/12/13 00:55:42;;;;;;;69.13;33.60;;;;;;;3.99;100.00;100351.59;6174529;28;20567;-67
2020/12/13 00:58:43;;;;;;;67.57;31.77;;;;;;;4.16;100.00;100361.44;6173751;28;20051;-67
2020/12/13 01:01:44;;;;;;;65.95;31.63;;;;;;;4.07;100.00;100356.56;6174347;28;20055;-67
2020/12/13 01:04:46;;;;;;;71.47;34.30;;;;;;;4.05;100.00;100359.22;6174069;28;20055;-67
2020/12/13 01:07:47;;;;;;;71.82;33.95;;;;;;;4.05;100.00;100359.22;6173882;28;20050;-67
2020/12/13 01:10:49;;;;;;;70.95;34.33;;;;;;;4.01;100.00;100367.16;6173488;28;20136;-67
2020/12/13 01:13:50;;;;;;;71.25;33.65;;;;;;;3.97;100.00;100370.75;6173947;28;20420;-67
2020/12/13 01:16:51;;;;;;;70.78;33.00;;;;;;;4.07;100.00;100380.81;6173699;28;20051;-67
2020/12/13 01:19:52;;;;;;;68.53;33.60;;;;;;;4.01;100.00;100378.41;6173504;28;20050;-67
2020/12/13 01:22:53;;;;;;;74.82;33.85;;;;;;;4.10;100.00;100379.88;6173841;28;20051;-67
2020/12/13 01:25:54;;;;;;;66.22;32.47;;;;;;;4.18;100.00;100377.00;6173754;28;20054;-67
2020/12/13 01:28:55;;;;;;;68.22;33.80;;;;;;;4.07;100.00;100390.34;6173363;28;20058;-67
2020/12/13 01:31:56;;;;;;;69.70;34.17;;;;;;;4.17;100.00;100393.50;6173995;28;20050;-67
2020/12/13 01:34:57;;;;;;;69.15;32.75;;;;;;;4.09;100.00;100401.56;6173685;28;20057;-66
2020/12/13 01:37:58;;;;;;;70.72;33.67;;;;;;;4.06;100.00;100405.09;6173373;28;20420;-67
2020/12/13 01:41:00;;;;;;;72.47;34.75;;;;;;;4.04;100.00;100404.31;6173172;28;20042;-66
2020/12/13 01:44:03;;;;;;;73.90;33.30;;;;;;;4.15;100.00;100408.31;6173534;28;20046;-66
2020/12/13 01:47:06;;;;;;;71.97;33.75;;;;;;;4.08;100.00;100397.25;6173016;28;20054;-67
2020/12/13 01:50:12;;;;;;;86.07;35.05;;;;;;;4.03;100.00;100402.59;6173044;28;20050;-66
2020/12/13 01:53:15;;;;;;;79.72;32.72;;;;;;;4.13;100.00;100405.75;6173541;28;20058;-66
2020/12/13 01:56:19;;;;;;;70.72;33.47;;;;;;;4.21;100.00;100401.16;6173177;28;20532;-66
2020/12/13 01:59:22;;;;;;;67.07;31.65;;;;;;;4.13;100.00;100404.91;6173122;28;20047;-67
2020/12/13 02:02:25;;;;;;;73.10;32.28;;;;;;;4.07;100.00;100406.81;6173192;28;20055;-66
2020/12/13 02:05:26;;;;;;;76.00;34.30;;;;;;;4.05;100.00;100406.00;6173532;28;20055;-67
2020/12/13 02:08:37;;;;;;;73.43;33.35;;;;;;;4.06;100.00;100407.72;6173044;28;20500;-66
2020/12/13 02:11:39;;;;;;;71.97;31.27;;;;;;;4.13;100.00;100407.50;6173243;28;20054;-66
2020/12/13 02:14:40;;;;;;;74.47;33.40;;;;;;;4.11;100.00;100406.72;6173245;28;20054;-67
2020/12/13 02:17:41;;;;;;;77.00;34.05;;;;;;;4.08;100.00;100412.84;6172558;28;20090;-67
2020/12/13 02:20:42;;;;;;;73.88;33.28;;;;;;;4.06;100.00;100407.72;6172696;28;20455;-67
2020/12/13 02:23:45;;;;;;;77.93;34.42;;;;;;;4.10;100.00;100416.28;6172963;28;20047;-67
2020/12/13 02:26:47;;;;;;;82.53;34.17;;;;;;;4.10;100.00;100412.81;6172992;28;20205;-67
2020/12/13 02:29:48;;;;;;;71.38;32.13;;;;;;;4.19;100.00;100417.72;6172478;28;20050;-66
2020/12/13 02:32:48;;;;;;;68.25;31.55;;;;;;;4.11;100.00;100417.97;6173134;28;20054;-67
2020/12/13 02:35:49;;;;;;;74.65;32.78;;;;;;;4.08;100.00;100421.50;6172910;28;20082;-66
2020/12/13 02:38:51;;;;;;;74.13;32.13;;;;;;;4.10;100.00;100424.06;6172658;28;20050;-67
2020/12/13 02:42:00;;;;;;;69.22;32.10;;;;;;;4.12;100.00;100424.00;6172688;28;20459;-66
2020/12/13 02:45:01;;;;;;;71.53;31.63;;;;;;;4.14;100.00;100430.88;6172895;28;20055;-67
2020/12/13 02:48:02;;;;;;;77.72;33.53;;;;;;;4.22;100.00;100426.25;6172682;28;20054;-67
2020/12/13 02:51:03;;;;;;;69.40;32.17;;;;;;;4.22;100.00;100434.06;6172543;28;20447;-67
2020/12/13 02:54:05;;;;;;;79.82;33.05;;;;;;;4.15;100.00;100434.31;6172965;28;20137;-68
2020/12/13 02:57:06;;;;;;;67.38;31.92;;;;;;;4.14;100.00;100440.44;6175780;28;20106;-67
2020/12/13 03:00:08;;;;;;;73.25;33.13;;;;;;;4.18;100.00;100444.59;6176883;28;20053;-67
2020/12/13 03:03:09;;;;;;;71.43;32.60;;;;;;;4.21;100.00;100445.38;6176684;28;20142;-67
2020/12/13 03:06:10;;;;;;;76.55;33.72;;;;;;;4.16;100.00;100449.03;6176825;28;20158;-67
2020/12/13 03:09:11;;;;;;;73.03;33.40;;;;;;;4.18;100.00;100450.69;6176435;28;20221;-67
2020/12/13 03:12:12;;;;;;;71.43;33.25;;;;;;;4.18;100.00;100458.50;6176977;28;20053;-67
2020/12/13 03:15:13;;;;;;;72.47;34.83;;;;;;;4.22;100.00;100461.81;6176506;28;20047;-67
2020/12/13 03:18:14;;;;;;;68.18;31.23;;;;;;;4.14;100.00;100456.88;6176613;28;20051;-67
2020/12/13 03:21:15;;;;;;;78.55;33.55;;;;;;;4.15;100.00;100461.19;6176278;28;20054;-67
2020/12/13 03:24:16;;;;;;;73.40;33.67;;;;;;;4.20;100.00;100468.84;6176081;28;20141;-67
2020/12/13 03:27:17;;;;;;;73.78;33.40;;;;;;;4.17;100.00;100456.75;6176332;28;20050;-67
2020/12/13 03:30:18;;;;;;;76.43;31.83;;;;;;;4.22;100.00;100465.25;6164375;28;20046;-67
2020/12/13 03:33:19;;;;;;;74.43;33.42;;;;;;;4.21;100.00;100468.78;6172672;28;20050;-66
2020/12/13 03:36:20;;;;;;;65.78;30.13;;;;;;;4.22;100.00;100472.22;6172644;28;20062;-67
2020/12/13 03:39:21;;;;;;;70.57;32.85;;;;;;;4.20;100.00;100467.06;6176046;28;20070;-67
2020/12/13 03:42:22;;;;;;;78.15;33.75;;;;;;;4.21;100.00;100478.34;6175798;28;20047;-67
2020/12/13 03:45:23;;;;;;;72.53;32.60;;;;;;;4.21;100.00;100478.34;6176335;28;20512;-67
2020/12/13 03:48:24;;;;;;;72.57;32.35;;;;;;;4.30;100.00;100478.88;6175722;28;20427;-67
2020/12/13 03:51:25;;;;;;;75.97;34.53;;;;;;;4.23;100.00;100479.16;6175422;28;20051;-67
2020/12/13 03:54:26;;;;;;;72.03;32.83;;;;;;;4.25;100.00;100482.53;6176078;28;20128;-68
2020/12/13 03:57:27;;;;;;;78.18;34.92;;;;;;;4.26;100.00;100479.88;6175010;28;20047;-66
2020/12/13 04:00:29;;;;;;;75.30;29.92;;;;;;;4.33;100.00;100483.16;6161532;28;20745;-66
2020/12/13 04:03:30;;;;;;;74.93;33.53;;;;;;;4.22;100.00;100483.47;6151554;28;20051;-67
2020/12/13 04:06:31;;;;;;;70.88;31.70;;;;;;;4.24;100.00;100486.03;6150757;28;20424;-66
2020/12/13 04:09:32;;;;;;;77.20;32.28;;;;;;;4.26;100.00;100492.03;6150998;28;20054;-67
2020/12/13 04:12:33;;;;;;;76.82;33.53;;;;;;;4.25;100.00;100492.94;6151514;28;20055;-67
2020/12/13 04:15:34;;;;;;;71.20;30.48;;;;;;;4.31;100.00;100488.41;6151560;28;20480;-67
2020/12/13 04:18:35;;;;;;;72.03;30.27;;;;;;;4.26;100.00;100497.25;6158995;28;20054;-66
2020/12/13 04:21:35;;;;;;;78.53;30.55;;;;;;;4.25;100.00;100495.53;6175256;28;20061;-67
2020/12/13 04:24:37;;;;;;;83.25;31.65;;;;;;;4.26;100.00;100495.47;6175063;28;20055;-66
2020/12/13 04:27:38;;;;;;;76.95;32.58;;;;;;;4.27;100.00;100488.53;6175019;28;20061;-67
2020/12/13 04:30:39;;;;;;;76.15;33.53;;;;;;;4.28;100.00;100493.69;6174567;28;20046;-66
2020/12/13 04:33:40;;;;;;;73.03;31.90;;;;;;;4.40;100.00;100494.19;6175012;28;20051;-66
2020/12/13 04:36:41;;;;;;;79.40;30.85;;;;;;;4.32;100.00;100494.47;6174449;28;20056;-67
2020/12/13 04:39:42;;;;;;;78.55;32.75;;;;;;;4.31;100.00;100495.34;6174736;28;20050;-67
2020/12/13 04:42:43;;;;;;;75.43;31.65;;;;;;;4.38;100.00;100496.84;6174271;28;20058;-67
2020/12/13 04:45:44;;;;;;;69.63;31.45;;;;;;;4.31;100.00;100503.16;6174908;28;20046;-67
2020/12/13 04:48:45;;;;;;;76.82;30.98;;;;;;;4.29;100.00;100507.56;6174004;28;20416;-67
2020/12/13 04:51:50;;;;;;;78.18;33.15;;;;;;;4.24;100.00;100510.31;6174250;28;20440;-67
2020/12/13 04:54:52;;;;;;;76.05;32.17;;;;;;;4.35;100.00;100509.94;6174549;28;20069;-67
2020/12/13 04:57:54;;;;;;;78.32;32.95;;;;;;;4.31;100.00;100513.53;6174308;28;20047;-67
2020/12/13 05:00:57;;;;;;;76.78;32.40;;;;;;;4.23;100.00;100520.75;6173838;28;20053;-67
2020/12/13 05:03:58;;;;;;;76.47;33.63;;;;;;;4.33;100.00;100522.16;6174237;28;20529;-67
2020/12/13 05:06:59;;;;;;;76.05;31.38;;;;;;;4.31;100.00;100527.44;6174112;28;20070;-67
2020/12/13 05:10:02;;;;;;;80.95;32.72;;;;;;;4.32;100.00;100534.34;6173775;28;20046;-67
2020/12/13 05:13:03;;;;;;;77.22;33.33;;;;;;;4.28;100.00;100531.88;6173960;28;20054;-67
2020/12/13 05:16:06;;;;;;;84.57;34.22;;;;;;;4.28;100.00;100529.28;6173701;28;20508;-67
2020/12/13 05:19:07;;;;;;;79.53;32.97;;;;;;;4.22;100.00;100542.44;6173535;28;20055;-67
2020/12/13 05:22:09;;;;;;;86.82;35.30;;;;;;;4.21;100.00;100543.34;6173727;28;20420;-67
2020/12/13 05:25:12;;;;;;;81.57;34.30;;;;;;;4.20;100.00;100541.66;6173981;28;20046;-67
2020/12/13 05:28:13;;;;;;;80.82;32.15;;;;;;;4.24;100.00;100545.88;6173389;28;20050;-67
2020/12/13 05:31:16;;;;;;;82.80;34.78;;;;;;;4.20;100.00;100552.91;6173193;28;20408;-66
2020/12/13 05:34:17;;;;;;;97.28;35.20;;;;;;;4.22;100.00;100556.28;6173885;28;20050;-67
2020/12/13 05:37:18;;;;;;;81.95;32.90;;;;;;;4.25;100.00;100555.38;6173285;28;20062;-67
2020/12/13 05:40:21;;;;;;;82.22;32.88;;;;;;;4.22;100.00;100555.44;6173524;28;20046;-67
2020/12/13 05:43:24;;;;;;;88.95;33.63;;;;;;;4.24;100.00;100556.28;6173164;28;20058;-67
2020/12/13 05:46:44;;;;;;;86.15;32.10;;;;;;;4.25;100.00;100556.22;6173235;28;20198;-67
2020/12/13 05:50:00;;;;;;;86.32;33.22;;;;;;;4.26;100.00;100551.84;6173223;28;20089;-67
2020/12/13 05:53:03;;;;;;;81.97;31.35;;;;;;;4.30;100.00;100551.72;6173438;28;20062;-67
2020/12/13 05:56:05;;;;;;;76.68;31.17;;;;;;;4.27;100.00;100551.84;6173215;28;20059;-66
2020/12/13 05:59:06;;;;;;;78.50;31.90;;;;;;;4.28;100.00;100555.28;6173149;28;20050;-66
2020/12/13 06:02:10;;;;;;;85.88;31.95;;;;;;;4.23;100.00;100552.81;6173271;28;20054;-67
2020/12/13 06:05:15;;;;;;;77.57;30.88;;;;;;;4.24;100.00;100553.66;6173392;28;20055;-67
2020/12/13 06:08:23;;;;;;;81.97;31.58;;;;;;;4.26;100.00;100552.72;6173049;28;20726;-66
2020/12/13 06:11:33;;;;;;;84.18;33.38;;;;;;;4.29;100.00;100557.81;6172638;28;20047;-67
2020/12/13 06:14:36;;;;;;;88.65;33.08;;;;;;;4.29;100.00;100560.44;6173221;28;20405;-67
2020/12/13 06:17:38;;;;;;;95.10;33.78;;;;;;;4.25;100.00;100552.75;6173174;28;20051;-66
2020/12/13 06:20:41;;;;;;;81.18;32.78;;;;;;;4.33;100.00;100561.19;6172650;28;20078;-67
2020/12/13 06:23:48;;;;;;;82.22;33.00;;;;;;;4.27;100.00;100566.56;6173190;28;20063;-67
2020/12/13 06:26:50;;;;;;;84.68;31.73;;;;;;;4.27;100.00;100577.84;6172930;28;20062;-67
2020/12/13 06:29:53;;;;;;;81.65;31.65;;;;;;;4.32;100.00;100582.91;6173027;28;20054;-66
2020/12/13 06:32:54;;;;;;;83.72;32.75;;;;;;;4.37;100.00;100581.00;6177680;28;20051;-67
2020/12/13 06:35:55;;;;;;;99.22;33.60;;;;;;;4.32;100.00;100581.16;6177308;28;20050;-67
2020/12/13 06:38:57;;;;;;;79.35;30.75;;;;;;;4.31;100.00;100587.25;6177277;28;20065;-67
2020/12/13 06:42:03;;;;;;;83.93;31.52;;;;;;;4.32;100.00;100585.50;6177060;28;20061;-66
2020/12/13 06:45:06;;;;;;;87.75;32.15;;;;;;;4.33;100.00;100587.22;6177557;28;20055;-67
2020/12/13 06:48:07;;;;;;;88.88;34.35;;;;;;;4.36;100.00;100589.72;6177068;28;20050;-67
2020/12/13 06:51:17;;;;;;;88.72;32.55;;;;;;;4.36;100.00;100599.25;6176783;28;20047;-67
2020/12/13 06:54:19;;;;;;;76.78;30.98;;;;;;;4.32;100.00;100604.56;6177434;28;20083;-66
2020/12/13 06:57:23;;;;;;;86.93;30.88;;;;;;;4.32;100.00;100599.38;6176872;28;20055;-67
2020/12/13 07:00:24;;;;;;;93.57;32.33;;;;;;;4.36;100.00;100614.84;6176867;28;20070;-67
2020/12/13 07:03:27;;;;;;;87.75;32.38;;;;;;;4.43;100.00;100611.19;6176721;28;20054;-67
2020/12/13 07:06:43;;;;;;;81.13;31.52;;;;;;;4.37;100.00;100614.84;6176704;28;20047;-67
2020/12/13 07:09:44;;;;;;;86.53;32.38;;;;;;;4.37;100.00;100621.78;6176543;28;20057;-66
2020/12/13 07:12:53;;;;;;;88.03;33.13;;;;;;;4.39;100.00;100625.19;6176392;28;20439;-66
2020/12/13 07:15:59;;;;;;;88.53;32.53;;;;;;;4.37;100.00;100627.00;6176772;28;20057;-67
2020/12/13 07:19:06;;;;;;;77.00;31.20;;;;;;;4.41;100.00;100633.81;6176201;28;20053;-66
2020/12/13 07:22:09;;;;;;;78.00;29.98;;;;;;;4.44;100.00;100636.31;6164765;28;20055;-67
2020/12/13 07:25:10;;;;;;;94.35;33.28;;;;;;;4.49;100.00;100624.00;6171236;28;20054;-67
2020/12/13 07:28:12;;;;;;;79.78;30.67;;;;;;;4.42;100.00;100638.97;6171688;28;20062;-67
2020/12/13 07:31:13;;;;;;;78.07;30.20;;;;;;;4.44;100.00;100638.91;6167722;28;20538;-67
2020/12/13 07:34:14;;;;;;;70.95;30.52;;;;;;;4.46;100.00;100650.13;6152201;28;20051;-67
2020/12/13 07:37:16;;;;;;;85.97;30.13;;;;;;;4.45;100.00;100649.28;6152040;28;20051;-67
2020/12/13 07:40:17;;;;;;;79.40;29.73;;;;;;;4.45;100.00;100658.81;6173238;28;20054;-67
2020/12/13 07:43:18;;;;;;;69.13;28.10;;;;;;;4.45;100.00;100657.09;6158277;28;20125;-67
2020/12/13 07:46:19;;;;;;;83.05;30.90;;;;;;;4.48;100.00;100674.34;6158292;28;20054;-66
2020/12/13 07:49:22;;;;;;;78.40;30.17;;;;;;;4.49;100.00;100666.47;6151553;28;20414;-67
2020/12/13 07:52:22;;;;;;;74.72;30.13;;;;;;;4.51;100.00;100680.31;6151878;28;20513;-67
2020/12/13 07:55:23;;;;;;;87.03;32.53;;;;;;;4.52;100.00;100674.22;6151981;28;20058;-67
2020/12/13 07:58:25;;;;;;;78.65;30.50;;;;;;;4.55;100.00;100676.72;6151369;28;20424;-66
2020/12/13 08:01:26;;;;;;;72.93;29.50;;;;;;;4.57;100.00;100689.69;6151427;28;20055;-66
2020/12/13 08:04:32;;;;;;;86.63;32.35;;;;;;;4.57;100.00;100692.28;6151849;28;20564;-66
2020/12/13 08:07:33;;;;;;;76.40;29.90;;;;;;;4.58;100.00;100691.38;6151263;28;20098;-66
2020/12/13 08:10:34;;;;;;;75.60;29.65;;;;;;;4.60;100.00;100693.97;6160474;28;20051;-66
2020/12/13 08:13:36;;;;;;;85.88;33.15;;;;;;;4.68;100.00;100698.03;6175287;28;20054;-66
2020/12/13 08:16:37;;;;;;;83.40;31.40;;;;;;;4.62;100.00;100713.81;6175228;28;20051;-66
2020/12/13 08:19:41;;;;;;;85.53;32.08;;;;;;;4.64;100.00;100709.44;6174933;28;20051;-66
2020/12/13 08:22:47;;;;;;;77.55;29.95;;;;;;;4.67;100.00;100711.09;6175365;28;20065;-66
2020/12/13 08:25:48;;;;;;;88.55;31.55;;;;;;;4.68;100.00;100710.19;6174999;28;20055;-66
2020/12/13 08:28:53;;;;;;;87.78;32.30;;;;;;;4.73;100.00;100723.94;6174789;28;20058;-67
2020/12/13 08:31:55;;;;;;;80.10;30.70;;;;;;;4.73;100.00;100722.19;6174827;28;20043;-66
2020/12/13 08:35:08;;;;;;;88.32;31.65;;;;;;;4.72;100.00;100725.66;6175103;28;20065;-66
2020/12/13 08:38:11;;;;;;;77.13;29.35;;;;;;;4.74;100.00;100736.06;6174551;28;20462;-66
2020/12/13 08:41:23;;;;;;;84.57;32.70;;;;;;;4.81;100.00;100735.84;6174173;28;20047;-66
2020/12/13 08:44:26;;;;;;;81.97;31.15;;;;;;;4.79;100.00;100737.59;6174854;28;20062;-66
2020/12/13 08:47:30;;;;;;;82.80;30.45;;;;;;;4.81;100.00;100737.56;6174433;28;20467;-66
2020/12/13 08:50:39;;;;;;;86.25;30.73;;;;;;;4.81;100.00;100738.44;6174056;28;20053;-67
2020/12/13 08:53:40;;;;;;;86.72;32.35;;;;;;;4.83;100.00;100743.59;6174242;28;20051;-67
2020/12/13 08:56:42;;;;;;;83.65;30.85;;;;;;;4.86;100.00;100748.72;6172380;28;20124;-66
2020/12/13 08:59:56;;;;;;;96.28;32.97;;;;;;;4.90;100.00;100752.91;6173900;28;20527;-66
2020/12/13 09:02:58;;;;;;;99.93;34.78;;;;;;;4.95;100.00;100758.84;6174089;28;20051;-66
2020/12/13 09:05:59;;;;;;;95.57;35.17;;;;;;;4.96;100.00;100764.91;6173826;28;20051;-66
2020/12/13 09:09:10;;;;;;;101.45;36.60;;;;;;;5.02;100.00;100759.50;6173622;28;20046;-66
2020/12/13 09:12:17;;;;;;;109.43;36.97;;;;;;;5.06;100.00;100763.72;6174045;28;20062;-66
2020/12/13 09:15:21;;;;;;;105.13;35.05;;;;;;;5.07;100.00;100771.47;6174257;28;20058;-66
2020/12/13 09:18:22;;;;;;;94.55;33.65;;;;;;;5.06;100.00;100764.56;6173555;28;20054;-66
2020/12/13 09:21:23;;;;;;;110.88;35.40;;;;;;;5.07;100.00;100768.88;6173801;28;20046;-66
2020/12/13 09:24:27;;;;;;;104.00;35.92;;;;;;;5.09;100.00;100779.28;6173774;28;20515;-66
2020/12/13 09:27:28;;;;;;;109.03;34.90;;;;;;;5.12;100.00;100773.09;6173483;28;20604;-66
2020/12/13 09:30:30;;;;;;;103.18;34.75;;;;;;;5.15;100.00;100778.22;6161437;28;20150;-67
2020/12/13 09:33:31;;;;;;;117.65;36.72;;;;;;;5.18;100.00;100776.38;6165579;28;20047;-67
2020/12/13 09:36:32;;;;;;;112.90;35.42;;;;;;;5.24;100.00;100788.38;6171608;28;20212;-66
2020/12/13 09:39:32;;;;;;;100.30;35.13;;;;;;;5.23;100.00;100786.66;6173201;28;20419;-66
2020/12/13 09:42:33;;;;;;;106.25;33.20;;;;;;;5.24;100.00;100793.56;6171366;28;20130;-66
2020/12/13 09:45:35;;;;;;;104.28;34.22;;;;;;;5.25;100.00;100803.94;6165434;28;20051;-67
2020/12/13 09:48:36;;;;;;;125.00;35.88;;;;;;;5.39;100.00;100795.69;6168894;28;20046;-66
2020/12/13 09:51:36;;;;;;;125.50;36.28;;;;;;;5.34;100.00;100803.66;6164463;28;20062;-66
2020/12/13 09:54:37;;;;;;;124.40;35.95;;;;;;;5.37;100.00;100809.69;6165210;28;20046;-66
2020/12/13 09:57:38;;;;;;;125.38;35.53;;;;;;;5.38;100.00;100814.84;6173248;28;20051;-66
2020/12/13 10:00:40;;;;;;;122.03;36.60;;;;;;;5.39;100.00;100810.47;6172943;28;20046;-67
2020/12/13 10:03:44;;;;;;;117.38;36.38;;;;;;;5.42;100.00;100807.78;6167099;28;20055;-66
2020/12/13 10:07:04;;;;;;;116.63;33.55;;;;;;;5.51;100.00;100804.91;6163194;28;20129;-66
2020/12/13 10:10:04;;;;;;;128.20;36.53;;;;;;;5.50;100.00;100803.19;6167174;28;20046;-66
2020/12/13 10:13:05;;;;;;;133.30;36.83;;;;;;;5.52;100.00;100807.44;6178189;28;20054;-67
2020/12/13 10:16:10;;;;;;;135.35;36.03;;;;;;;5.55;100.00;100807.34;6174138;28;20121;-70
2020/12/13 10:19:12;;;;;;;135.10;36.03;;;;;;;5.60;100.00;100818.50;6169651;28;20051;-69
2020/12/13 10:22:12;;;;;;;119.47;35.42;;;;;;;5.68;100.00;100825.19;6170023;28;20055;-69
2020/12/13 10:25:13;;;;;;;128.40;34.88;;;;;;;5.74;100.00;100823.25;6165526;28;20051;-69
2020/12/13 10:28:14;;;;;;;139.50;36.17;;;;;;;5.82;100.00;100817.81;6173262;28;20047;-69
2020/12/13 10:31:16;;;;;;;104.88;33.85;;;;;;;6.01;100.00;100812.88;6154456;28;20055;-69
2020/12/13 10:34:17;;;;;;;102.03;33.60;;;;;;;5.98;100.00;100807.75;6175404;28;20055;-68
2020/12/13 10:37:18;;;;;;;109.93;32.63;;;;;;;5.98;100.00;100820.78;6172843;28;20061;-68
2020/12/13 10:40:19;;;;;;;98.97;31.58;;;;;;;5.97;100.00;100817.31;6171817;28;20054;-67
2020/12/13 10:43:21;;;;;;;94.20;29.88;;;;;;;6.01;100.00;100818.09;6177045;28;20047;-67
2020/12/13 10:46:23;;;;;;;92.80;31.35;;;;;;;6.04;100.00;100816.22;6158109;28;20055;-68
2020/12/13 10:49:24;;;;;;;99.25;32.50;;;;;;;6.06;100.00;100814.41;6153399;28;20047;-67
2020/12/13 10:52:25;;;;;;;106.22;31.95;;;;;;;6.05;100.00;100817.09;6153487;28;20540;-67
2020/12/13 10:55:26;;;;;;;92.55;29.05;;;;;;;6.07;100.00;100829.16;6163213;28;20499;-67
2020/12/13 10:58:27;;;;;;;81.43;27.98;;;;;;;6.19;100.00;100821.84;6177049;28;20055;-67
2020/12/13 11:01:28;;;;;;;92.88;29.80;;;;;;;6.20;100.00;100824.38;6176370;28;20503;-67
2020/12/13 11:04:29;;;;;;;78.72;28.10;;;;;;;6.39;100.00;100824.59;6176845;28;20047;-68
2020/12/13 11:07:30;;;;;;;72.10;27.65;;;;;;;6.43;100.00;100828.81;6176459;28;20423;-67
2020/12/13 11:10:31;;;;;;;65.75;26.13;;;;;;;6.40;100.00;100818.47;6175709;28;20046;-67
2020/12/13 11:13:32;;;;;;;60.72;24.55;;;;;;;6.41;100.00;100828.03;6175896;28;20432;-66
2020/12/13 11:16:33;;;;;;;66.72;26.20;;;;;;;6.47;100.00;100819.97;6175090;28;20057;-67
2020/12/13 11:19:34;;;;;;;61.78;24.92;;;;;;;6.41;100.00;100821.94;6175453;28;20054;-68
2020/12/13 11:22:35;;;;;;;63.22;24.65;;;;;;;6.39;100.00;100824.59;6166735;28;20058;-68
2020/12/13 11:25:36;;;;;;;59.75;22.60;;;;;;;6.34;100.00;100832.59;6160597;28;20047;-68
2020/12/13 11:28:37;;;;;;;56.85;22.73;;;;;;;6.34;100.00;100834.34;6165456;28;20190;-68
2020/12/13 11:31:38;;;;;;;50.45;21.92;;;;;;;6.32;100.00;100838.78;6164062;28;20598;-67
2020/12/13 11:34:39;;;;;;;52.90;21.80;;;;;;;6.40;100.00;100835.88;6161463;28;20047;-68
2020/12/13 11:37:40;;;;;;;48.17;21.90;;;;;;;6.40;100.00;100831.50;6165212;28;20043;-68
2020/12/13 11:40:41;;;;;;;48.13;21.23;;;;;;;6.64;100.00;100836.81;6167065;28;20054;-68
2020/12/13 11:43:42;;;;;;;44.33;20.75;;;;;;;6.69;100.00;100835.72;6162104;28;20058;-68
2020/12/13 11:46:47;;;;;;;44.45;19.60;;;;;;;6.72;100.00;100834.75;6171565;28;20412;-68
2020/12/13 11:49:47;;;;;;;42.70;21.02;;;;;;;6.50;100.00;100837.28;6152814;28;20436;-64
2020/12/13 11:52:48;;;;;;;38.38;18.85;;;;;;;6.59;100.00;100844.81;6175213;28;20074;-68
2020/12/13 11:55:49;;;;;;;38.28;17.90;;;;;;;6.84;98.06;100839.53;6172916;28;20411;-67
2020/12/13 11:58:50;;;;;;;40.60;19.25;;;;;;;6.61;98.35;100843.81;6167436;28;20047;-67
2020/12/13 12:01:51;;;;;;;39.60;17.88;;;;;;;6.69;99.28;100845.31;6175620;28;20114;-67
2020/12/13 12:04:52;;;;;;;38.78;18.40;;;;;;;6.63;99.11;100845.53;6175203;28;20143;-67
2020/12/13 12:07:54;;;;;;;40.45;19.17;;;;;;;6.43;100.00;100841.00;6174242;28;20051;-67
2020/12/13 12:10:55;;;;;;;44.67;19.52;;;;;;;6.44;100.00;100840.09;6174996;28;20053;-67
2020/12/13 12:13:56;;;;;;;40.80;19.85;;;;;;;6.49;100.00;100840.78;6175634;28;20055;-67
2020/12/13 12:16:57;;;;;;;39.75;18.55;;;;;;;6.81;99.46;100842.25;6175105;28;20054;-67
2020/12/13 12:19:58;;;;;;;37.35;18.80;;;;;;;6.63;99.88;100841.16;6175059;28;20047;-67
2020/12/13 12:22:59;;;;;;;43.17;18.95;;;;;;;6.46;100.00;100846.13;6175152;28;20053;-67
2020/12/13 12:26:00;;;;;;;46.80;20.20;;;;;;;6.61;100.00;100846.44;6174963;28;20053;-67
2020/12/13 12:29:01;;;;;;;45.63;19.40;;;;;;;6.61;100.00;100854.28;6173881;28;20126;-67
2020/12/13 12:32:04;;;;;;;41.10;19.40;;;;;;;6.55;100.00;100849.28;6174818;28;20396;-67
2020/12/13 12:35:05;;;;;;;41.28;19.25;;;;;;;6.50;100.00;100853.81;6175171;28;20066;-67
2020/12/13 12:38:06;;;;;;;45.83;21.45;;;;;;;6.52;100.00;100856.34;6174266;28;20073;-67
2020/12/13 12:41:10;;;;;;;56.85;22.15;;;;;;;6.41;100.00;100858.50;6174692;28;20050;-67
2020/12/13 12:44:11;;;;;;;47.38;21.30;;;;;;;6.35;100.00;100854.31;6174600;28;20515;-67
2020/12/13 12:47:13;;;;;;;48.67;22.20;;;;;;;6.35;100.00;100856.91;6174535;28;20046;-67
2020/12/13 12:50:14;;;;;;;50.22;22.17;;;;;;;6.38;100.00;100859.44;6174283;28;20058;-67
2020/12/13 12:53:14;;;;;;;54.58;24.08;;;;;;;6.41;100.00;100861.09;6163608;28;20054;-67
2020/12/13 12:56:15;;;;;;;53.55;22.25;;;;;;;6.41;100.00;100861.09;6150270;28;20047;-67
2020/12/13 12:59:20;;;;;;;53.53;21.98;;;;;;;6.38;100.00;100867.28;6150280;28;20214;-67
2020/12/13 13:02:23;;;;;;;57.60;24.48;;;;;;;6.49;100.00;100861.66;6150450;28;20134;-67
2020/12/13 13:05:30;;;;;;;55.25;22.70;;;;;;;6.50;100.00;100863.41;6150595;28;20067;-67
2020/12/13 13:08:34;;;;;;;55.58;22.60;;;;;;;6.43;100.00;100867.13;6162908;28;20055;-67
2020/12/13 13:11:36;;;;;;;59.95;22.52;;;;;;;6.39;100.00;100868.13;6173650;28;20492;-67
2020/12/13 13:14:37;;;;;;;52.53;21.77;;;;;;;6.38;100.00;100872.50;6174013;28;20420;-67
2020/12/13 13:17:42;;;;;;;57.67;23.23;;;;;;;6.38;100.00;100879.47;6173877;28;20058;-68
2020/12/13 13:20:43;;;;;;;64.60;25.45;;;;;;;6.37;100.00;100877.78;6173681;28;20054;-68
2020/12/13 13:23:44;;;;;;;68.85;24.55;;;;;;;6.37;100.00;100881.22;6173939;28;20096;-67
2020/12/13 13:26:45;;;;;;;68.68;26.13;;;;;;;6.38;100.00;100887.31;6173605;28;20047;-68
2020/12/13 13:29:46;;;;;;;66.18;25.92;;;;;;;6.37;100.00;100883.00;6173341;28;20047;-68
2020/12/13 13:32:47;;;;;;;68.10;27.42;;;;;;;6.37;100.00;100886.44;6171086;28;20057;-69
2020/12/13 13:35:49;;;;;;;69.57;27.00;;;;;;;6.41;100.00;100884.59;6161564;28;20051;-69
2020/12/13 13:38:50;;;;;;;69.45;26.42;;;;;;;6.42;100.00;100884.53;6167165;28;20073;-68
2020/12/13 13:41:52;;;;;;;60.42;24.88;;;;;;;6.38;100.00;100885.53;6165462;28;20043;-68
2020/12/13 13:44:57;;;;;;;57.35;24.15;;;;;;;6.34;100.00;100895.22;6163644;28;20054;-69
2020/12/13 13:48:12;;;;;;;64.28;25.10;;;;;;;6.33;100.00;100895.28;6160486;28;20047;-69